Bellview, Texas
Current Conditions -  °F | °C
As of 1:15 PM on Friday 28 Nov 2014 (Local Time) from K11R Reporting Station
Scattered Clouds Scattered Clouds  
Wind Chill: 71°   Ceiling: Unl
Heat Index: 71°   Visibility: 10mi
Dew Point: 56°   Wind: 12mph
Humidity: 58%   Direction: 170°S
Pressure: 30.22"   Gusts: NA
Location:  29.9944°N, 96.2595°W
Report Text: K11R 281915Z AUTO 17010KT 10SM SCT034 SCT041 22/13 A3022 RMK AO2 T02170131
Loading
Personal Weather Stations






























Interactive Weather Map New forecast layout! Learn more

10-Day Weather Forecast

Advertisements
Track Severe Weather on mobile